sensor_id;sensor_type;location;lat;lon;timestamp;temperature;humidity
9901;DHT22;4989;48.772;9.154;2023-05-10T00:04:15;17.30;99.90
9901;DHT22;4989;48.772;9.154;2023-05-10T00:09:17;17.60;99.90
9901;DHT22;4989;48.772;9.154;2023-05-10T00:14:19;17.40;99.90
9901;DHT22;4989;48.772;9.154;2023-05-10T00:19:22;17.80;99.90
9901;DHT22;4989;48.772;9.154;2023-05-10T00:24:24;17.80;99.40
9901;DHT22;4989;48.772;9.154;2023-05-10T00:29:26;17.30;99.30
9901;DHT22;4989;48.772;9.154;2023-05-10T00:34:30;17.30;98.30
9901;DHT22;4989;48.772;9.154;2023-05-10T00:39:32;16.80;99.90
9901;DHT22;4989;48.772;9.154;2023-05-10T00:44:34;17.10;98.80
9901;DHT22;4989;48.772;9.154;2023-05-10T00:49:37;16.60;98.80
9901;DHT22;4989;48.772;9.154;2023-05-10T00:54:39;16.60;99.90
9901;DHT22;4989;48.772;9.154;2023-05-10T00:59:41;17.30;98.70
9901;DHT22;4989;48.772;9.154;2023-05-10T01:04:44;16.90;97.90
9901;DHT22;4989;48.772;9.154;2023-05-10T01:09:46;17.30;98.40
9901;DHT22;4989;48.772;9.154;2023-05-10T01:14:49;17.40;96.90
9901;DHT22;4989;48.772;9.154;2023-05-10T01:19:52;17.50;97.20
9901;DHT22;4989;48.772;9.154;2023-05-10T01:36:31;16.50;98.30
9901;DHT22;4989;48.772;9.154;2023-05-10T01:42:03;16.70;97.90
9901;DHT22;4989;48.772;9.154;2023-05-10T01:52:28;16.70;97.60
9901;DHT22;4989;48.772;9.154;2023-05-10T01:57:36;16.70;97.00
9901;DHT22;4989;48.772;9.154;2023-05-10T02:02:48;16.50;98.00
9901;DHT22;4989;48.772;9.154;2023-05-10T02:07:52;16.30;98.60
9901;DHT22;4989;48.772;9.154;2023-05-10T02:12:58;16.00;97.90
9901;DHT22;4989;48.772;9.154;2023-05-10T02:18:02;16.00;98.70
9901;DHT22;4989;48.772;9.154;2023-05-10T02:23:09;15.80;98.60
9901;DHT22;4989;48.772;9.154;2023-05-10T02:28:13;16.10;99.10
9901;DHT22;4989;48.772;9.154;2023-05-10T02:33:18;15.80;98.40
9901;DHT22;4989;48.772;9.154;2023-05-10T02:38:24;15.80;99.80
9901;DHT22;4989;48.772;9.154;2023-05-10T02:43:30;15.40;99.70
9901;DHT22;4989;48.772;9.154;2023-05-10T02:48:35;15.00;99.90
9901;DHT22;4989;48.772;9.154;2023-05-10T02:53:38;15.00;99.90
9901;DHT22;4989;48.772;9.154;2023-05-10T02:58:43;15.00;99.90
9901;DHT22;4989;48.772;9.154;2023-05-10T03:03:45;15.30;99.90
9901;DHT22;4989;48.772;9.154;2023-05-10T03:08:47;14.90;99.90
9901;DHT22;4989;48.772;9.154;2023-05-10T03:14:05;15.00;99.90
9901;DHT22;4989;48.772;9.154;2023-05-10T03:25:06;15.40;99.90
9901;DHT22;4989;48.772;9.154;2023-05-10T03:30:13;15.90;99.90
9901;DHT22;4989;48.772;9.154;2023-05-10T03:35:16;16.10;99.10
9901;DHT22;4989;48.772;9.154;2023-05-10T03:40:19;15.80;98.60
9901;DHT22;4989;48.772;9.154;2023-05-10T03:45:21;16.40;97.90
9901;DHT22;4989;48.772;9.154;2023-05-10T03:50:24;16.20;98.10
9901;DHT22;4989;48.772;9.154;2023-05-10T03:55:27;16.50;97.90
9901;DHT22;4989;48.772;9.154;2023-05-10T04:00:31;16.20;97.30
9901;DHT22;4989;48.772;9.154;2023-05-10T04:05:35;15.50;98.70
9901;DHT22;4989;48.772;9.154;2023-05-10T04:10:38;14.80;99.90
9901;DHT22;4989;48.772;9.154;2023-05-10T04:15:40;14.80;99.90
9901;DHT22;4989;48.772;9.154;2023-05-10T04:20:43;15.10;99.90
9901;DHT22;4989;48.772;9.154;2023-05-10T04:25:45;14.90;99.90
9901;DHT22;4989;48.772;9.154;2023-05-10T04:30:47;14.80;99.90
9901;DHT22;4989;48.772;9.154;2023-05-10T04:35:49;14.50;99.90
9901;DHT22;4989;48.772;9.154;2023-05-10T04:40:51;14.50;99.90
9901;DHT22;4989;48.772;9.154;2023-05-10T04:45:56;14.70;99.90
9901;DHT22;4989;48.772;9.154;2023-05-10T04:50:59;14.90;99.90
9901;DHT22;4989;48.772;9.154;2023-05-10T04:56:01;14.80;99.90
9901;DHT22;4989;48.772;9.154;2023-05-10T05:01:07;14.90;99.90
9901;DHT22;4989;48.772;9.154;2023-05-10T05:06:12;15.20;99.90
9901;DHT22;4989;48.772;9.154;2023-05-10T05:11:15;15.20;99.90
9901;DHT22;4989;48.772;9.154;2023-05-10T05:16:17;15.20;99.90
9901;DHT22;4989;48.772;9.154;2023-05-10T05:21:20;15.60;99.90
9901;DHT22;4989;48.772;9.154;2023-05-10T05:26:23;15.90;99.60
9901;DHT22;4989;48.772;9.154;2023-05-10T05:31:25;16.20;98.90
9901;DHT22;4989;48.772;9.154;2023-05-10T05:36:28;16.30;99.20
9901;DHT22;4989;48.772;9.154;2023-05-10T05:41:30;16.50;97.80
9901;DHT22;4989;48.772;9.154;2023-05-10T05:46:32;15.80;98.50
9901;DHT22;4989;48.772;9.154;2023-05-10T05:51:34;15.50;99.60
9901;DHT22;4989;48.772;9.154;2023-05-10T05:56:37;15.50;99.90
9901;DHT22;4989;48.772;9.154;2023-05-10T06:01:39;15.70;99.70
9901;DHT22;4989;48.772;9.154;2023-05-10T06:06:42;15.30;99.90
9901;DHT22;4989;48.772;9.154;2023-05-10T06:11:44;15.30;99.90
9901;DHT22;4989;48.772;9.154;2023-05-10T06:16:46;15.40;99.90
9901;DHT22;4989;48.772;9.154;2023-05-10T06:21:48;15.40;99.90
9901;DHT22;4989;48.772;9.154;2023-05-10T06:26:54;15.40;99.90
9901;DHT22;4989;48.772;9.154;2023-05-10T06:31:56;15.10;99.90
9901;DHT22;4989;48.772;9.154;2023-05-10T06:36:59;15.30;99.90
9901;DHT22;4989;48.772;9.154;2023-05-10T06:42:01;15.40;99.90
9901;DHT22;4989;48.772;9.154;2023-05-10T06:47:09;15.10;99.90
9901;DHT22;4989;48.772;9.154;2023-05-10T06:52:11;15.10;99.90
9901;DHT22;4989;48.772;9.154;2023-05-10T06:57:14;15.50;99.90
9901;DHT22;4989;48.772;9.154;2023-05-10T07:02:41;15.10;99.90
9901;DHT22;4989;48.772;9.154;2023-05-10T07:07:44;14.80;99.90
9901;DHT22;4989;48.772;9.154;2023-05-10T07:12:46;15.00;99.90
9901;DHT22;4989;48.772;9.154;2023-05-10T07:17:48;15.20;99.90
9901;DHT22;4989;48.772;9.154;2023-05-10T07:22:51;15.60;99.90
9901;DHT22;4989;48.772;9.154;2023-05-10T07:27:53;15.90;99.90
9901;DHT22;4989;48.772;9.154;2023-05-10T07:32:55;15.70;99.90
9901;DHT22;4989;48.772;9.154;2023-05-10T07:37:58;15.80;99.90
9901;DHT22;4989;48.772;9.154;2023-05-10T07:43:00;16.40;99.70
9901;DHT22;4989;48.772;9.154;2023-05-10T07:48:03;15.80;99.30
9901;DHT22;4989;48.772;9.154;2023-05-10T07:53:05;15.70;99.10
9901;DHT22;4989;48.772;9.154;2023-05-10T07:58:08;15.90;97.10
9901;DHT22;4989;48.772;9.154;2023-05-10T08:03:10;15.90;97.70
9901;DHT22;4989;48.772;9.154;2023-05-10T08:08:13;16.60;98.40
9901;DHT22;4989;48.772;9.154;2023-05-10T08:13:15;16.70;95.60
9901;DHT22;4989;48.772;9.154;2023-05-10T08:18:17;16.60;96.70
9901;DHT22;4989;48.772;9.154;2023-05-10T08:23:22;16.40;95.40
9901;DHT22;4989;48.772;9.154;2023-05-10T08:28:25;16.50;95.20
9901;DHT22;4989;48.772;9.154;2023-05-10T08:33:27;16.50;95.50
9901;DHT22;4989;48.772;9.154;2023-05-10T08:38:30;16.50;95.90
9901;DHT22;4989;48.772;9.154;2023-05-10T08:43:32;16.70;94.60
9901;DHT22;4989;48.772;9.154;2023-05-10T08:48:37;17.50;97.20
9901;DHT22;4989;48.772;9.154;2023-05-10T08:53:40;17.50;91.60
9901;DHT22;4989;48.772;9.154;2023-05-10T08:58:43;17.50;92.40
9901;DHT22;4989;48.772;9.154;2023-05-10T09:03:46;17.30;91.10
9901;DHT22;4989;48.772;9.154;2023-05-10T09:08:50;16.90;92.50
9901;DHT22;4989;48.772;9.154;2023-05-10T09:13:53;17.20;92.40
9901;DHT22;4989;48.772;9.154;2023-05-10T09:18:56;17.00;93.70
9901;DHT22;4989;48.772;9.154;2023-05-10T09:24:03;17.10;94.80
9901;DHT22;4989;48.772;9.154;2023-05-10T09:29:08;17.60;92.20
9901;DHT22;4989;48.772;9.154;2023-05-10T09:34:11;16.90;90.20
9901;DHT22;4989;48.772;9.154;2023-05-10T09:39:13;16.90;90.90
9901;DHT22;4989;48.772;9.154;2023-05-10T09:44:17;17.00;92.10
9901;DHT22;4989;48.772;9.154;2023-05-10T09:49:21;17.40;90.60
9901;DHT22;4989;48.772;9.154;2023-05-10T09:54:24;18.20;90.00
9901;DHT22;4989;48.772;9.154;2023-05-10T09:59:27;18.60;82.10
9901;DHT22;4989;48.772;9.154;2023-05-10T10:04:30;18.70;90.90
9901;DHT22;4989;48.772;9.154;2023-05-10T10:09:34;18.90;81.30
9901;DHT22;4989;48.772;9.154;2023-05-10T10:14:36;19.50;87.50
9901;DHT22;4989;48.772;9.154;2023-05-10T10:19:39;20.10;88.20
9901;DHT22;4989;48.772;9.154;2023-05-10T10:24:43;20.30;86.20
9901;DHT22;4989;48.772;9.154;2023-05-10T10:29:59;20.50;85.30
9901;DHT22;4989;48.772;9.154;2023-05-10T10:35:08;20.40;79.80
9901;DHT22;4989;48.772;9.154;2023-05-10T10:40:30;20.20;82.50
9901;DHT22;4989;48.772;9.154;2023-05-10T10:45:39;19.50;74.30
9901;DHT22;4989;48.772;9.154;2023-05-10T10:50:45;19.60;83.30
9901;DHT22;4989;48.772;9.154;2023-05-10T10:55:48;19.40;87.80
9901;DHT22;4989;48.772;9.154;2023-05-10T11:01:12;19.70;77.50
9901;DHT22;4989;48.772;9.154;2023-05-10T11:06:29;19.40;79.10
9901;DHT22;4989;48.772;9.154;2023-05-10T11:11:34;19.50;84.80
9901;DHT22;4989;48.772;9.154;2023-05-10T11:16:42;19.60;84.50
9901;DHT22;4989;48.772;9.154;2023-05-10T11:27:18;19.20;70.00
9901;DHT22;4989;48.772;9.154;2023-05-10T11:32:22;18.50;78.30
9901;DHT22;4989;48.772;9.154;2023-05-10T11:37:28;18.40;74.00
9901;DHT22;4989;48.772;9.154;2023-05-10T11:42:34;17.70;75.80
9901;DHT22;4989;48.772;9.154;2023-05-10T11:47:36;17.80;76.10
9901;DHT22;4989;48.772;9.154;2023-05-10T11:52:38;18.40;88.30
9901;DHT22;4989;48.772;9.154;2023-05-10T11:57:41;18.90;83.30
9901;DHT22;4989;48.772;9.154;2023-05-10T12:02:46;18.80;74.00
9901;DHT22;4989;48.772;9.154;2023-05-10T12:07:49;18.30;74.20
9901;DHT22;4989;48.772;9.154;2023-05-10T12:12:52;17.80;75.60
9901;DHT22;4989;48.772;9.154;2023-05-10T12:17:56;17.90;75.10
9901;DHT22;4989;48.772;9.154;2023-05-10T12:22:59;18.70;77.10
9901;DHT22;4989;48.772;9.154;2023-05-10T12:28:05;19.50;80.50
9901;DHT22;4989;48.772;9.154;2023-05-10T12:33:11;19.50;78.30
9901;DHT22;4989;48.772;9.154;2023-05-10T12:43:27;18.10;80.40
9901;DHT22;4989;48.772;9.154;2023-05-10T12:48:29;18.50;71.80
9901;DHT22;4989;48.772;9.154;2023-05-10T12:53:33;19.30;73.70
9901;DHT22;4989;48.772;9.154;2023-05-10T12:58:35;18.50;82.00
9901;DHT22;4989;48.772;9.154;2023-05-10T13:03:37;19.00;78.70
9901;DHT22;4989;48.772;9.154;2023-05-10T13:08:39;18.90;71.60
9901;DHT22;4989;48.772;9.154;2023-05-10T13:13:42;18.70;71.10
9901;DHT22;4989;48.772;9.154;2023-05-10T13:18:44;18.30;70.70
9901;DHT22;4989;48.772;9.154;2023-05-10T13:23:46;18.10;72.80
9901;DHT22;4989;48.772;9.154;2023-05-10T13:28:49;18.00;70.70
9901;DHT22;4989;48.772;9.154;2023-05-10T13:33:53;18.70;73.60
9901;DHT22;4989;48.772;9.154;2023-05-10T13:38:56;18.50;73.00
9901;DHT22;4989;48.772;9.154;2023-05-10T13:43:58;18.40;73.50
9901;DHT22;4989;48.772;9.154;2023-05-10T13:49:00;19.20;78.40
9901;DHT22;4989;48.772;9.154;2023-05-10T13:54:03;19.60;76.00
9901;DHT22;4989;48.772;9.154;2023-05-10T13:59:05;19.70;75.80
9901;DHT22;4989;48.772;9.154;2023-05-10T14:04:08;19.40;74.50
9901;DHT22;4989;48.772;9.154;2023-05-10T14:09:12;20.00;75.40
9901;DHT22;4989;48.772;9.154;2023-05-10T14:14:14;20.30;73.00
9901;DHT22;4989;48.772;9.154;2023-05-10T14:19:19;20.40;73.70
9901;DHT22;4989;48.772;9.154;2023-05-10T14:24:22;20.30;66.30
9901;DHT22;4989;48.772;9.154;2023-05-10T14:29:24;19.10;64.50
9901;DHT22;4989;48.772;9.154;2023-05-10T14:34:27;19.50;77.30
9901;DHT22;4989;48.772;9.154;2023-05-10T14:39:29;19.70;69.90
9901;DHT22;4989;48.772;9.154;2023-05-10T14:44:31;20.30;75.50
9901;DHT22;4989;48.772;9.154;2023-05-10T14:49:34;20.30;67.20
9901;DHT22;4989;48.772;9.154;2023-05-10T14:54:36;20.50;74.10
9901;DHT22;4989;48.772;9.154;2023-05-10T14:59:38;20.20;66.20
9901;DHT22;4989;48.772;9.154;2023-05-10T15:04:41;20.50;62.20
9901;DHT22;4989;48.772;9.154;2023-05-10T15:09:44;20.40;69.50
9901;DHT22;4989;48.772;9.154;2023-05-10T15:14:47;19.50;63.50
9901;DHT22;4989;48.772;9.154;2023-05-10T15:19:49;20.00;76.20
9901;DHT22;4989;48.772;9.154;2023-05-10T15:24:52;20.40;73.20
9901;DHT22;4989;48.772;9.154;2023-05-10T15:29:54;20.50;73.50
9901;DHT22;4989;48.772;9.154;2023-05-10T15:34:57;20.00;69.80
9901;DHT22;4989;48.772;9.154;2023-05-10T15:39:59;20.20;68.70
9901;DHT22;4989;48.772;9.154;2023-05-10T15:45:06;20.10;65.60
9901;DHT22;4989;48.772;9.154;2023-05-10T15:50:09;19.80;63.90
9901;DHT22;4989;48.772;9.154;2023-05-10T15:55:12;19.40;70.90
9901;DHT22;4989;48.772;9.154;2023-05-10T16:00:15;20.10;73.50
9901;DHT22;4989;48.772;9.154;2023-05-10T16:05:18;20.50;74.80
9901;DHT22;4989;48.772;9.154;2023-05-10T16:10:21;20.70;71.10
9901;DHT22;4989;48.772;9.154;2023-05-10T16:15:23;20.40;60.20
9901;DHT22;4989;48.772;9.154;2023-05-10T16:20:26;20.20;68.30
9901;DHT22;4989;48.772;9.154;2023-05-10T16:25:28;20.40;71.90
9901;DHT22;4989;48.772;9.154;2023-05-10T16:30:30;20.40;61.60
9901;DHT22;4989;48.772;9.154;2023-05-10T16:35:33;19.80;62.70
9901;DHT22;4989;48.772;9.154;2023-05-10T16:40:35;19.40;61.10
9901;DHT22;4989;48.772;9.154;2023-05-10T16:45:37;18.80;65.80
9901;DHT22;4989;48.772;9.154;2023-05-10T16:50:43;18.90;65.10
9901;DHT22;4989;48.772;9.154;2023-05-10T16:55:45;18.60;62.30
9901;DHT22;4989;48.772;9.154;2023-05-10T17:00:47;18.90;68.70
9901;DHT22;4989;48.772;9.154;2023-05-10T17:05:50;18.80;63.30
9901;DHT22;4989;48.772;9.154;2023-05-10T17:10:52;18.80;63.70
9901;DHT22;4989;48.772;9.154;2023-05-10T17:15:54;18.80;66.10
9901;DHT22;4989;48.772;9.154;2023-05-10T17:20:57;19.20;64.50
9901;DHT22;4989;48.772;9.154;2023-05-10T17:26:03;18.90;63.40
9901;DHT22;4989;48.772;9.154;2023-05-10T17:31:06;18.50;66.50
9901;DHT22;4989;48.772;9.154;2023-05-10T17:36:08;17.80;69.50
9901;DHT22;4989;48.772;9.154;2023-05-10T17:41:10;17.70;69.70
9901;DHT22;4989;48.772;9.154;2023-05-10T17:46:12;17.30;69.60
9901;DHT22;4989;48.772;9.154;2023-05-10T17:51:15;17.20;71.60
9901;DHT22;4989;48.772;9.154;2023-05-10T17:56:17;17.20;70.80
9901;DHT22;4989;48.772;9.154;2023-05-10T18:01:19;16.80;71.60
9901;DHT22;4989;48.772;9.154;2023-05-10T18:06:22;17.10;70.70
9901;DHT22;4989;48.772;9.154;2023-05-10T18:11:24;17.00;70.40
9901;DHT22;4989;48.772;9.154;2023-05-10T18:16:27;17.00;69.70
9901;DHT22;4989;48.772;9.154;2023-05-10T18:21:29;16.80;70.50
9901;DHT22;4989;48.772;9.154;2023-05-10T18:26:32;16.70;70.60
9901;DHT22;4989;48.772;9.154;2023-05-10T18:31:34;16.60;70.40
9901;DHT22;4989;48.772;9.154;2023-05-10T18:36:36;16.40;71.60
9901;DHT22;4989;48.772;9.154;2023-05-10T18:41:39;16.10;72.70
9901;DHT22;4989;48.772;9.154;2023-05-10T18:46:41;15.80;76.90
9901;DHT22;4989;48.772;9.154;2023-05-10T18:51:44;15.60;79.50
9901;DHT22;4989;48.772;9.154;2023-05-10T18:56:48;15.60;80.80
9901;DHT22;4989;48.772;9.154;2023-05-10T19:01:50;15.40;82.30
9901;DHT22;4989;48.772;9.154;2023-05-10T19:06:55;15.30;83.00
9901;DHT22;4989;48.772;9.154;2023-05-10T19:11:58;15.10;84.30
9901;DHT22;4989;48.772;9.154;2023-05-10T19:17:00;15.20;84.80
9901;DHT22;4989;48.772;9.154;2023-05-10T19:22:03;15.30;85.00
9901;DHT22;4989;48.772;9.154;2023-05-10T19:27:05;15.30;85.10
9901;DHT22;4989;48.772;9.154;2023-05-10T19:32:08;15.60;84.70
9901;DHT22;4989;48.772;9.154;2023-05-10T19:37:10;15.70;84.10
9901;DHT22;4989;48.772;9.154;2023-05-10T19:42:13;15.70;83.90
9901;DHT22;4989;48.772;9.154;2023-05-10T19:47:15;15.70;84.10
9901;DHT22;4989;48.772;9.154;2023-05-10T19:52:17;15.60;84.20
9901;DHT22;4989;48.772;9.154;2023-05-10T19:57:19;15.70;83.50
9901;DHT22;4989;48.772;9.154;2023-05-10T20:02:22;16.00;82.60
9901;DHT22;4989;48.772;9.154;2023-05-10T20:07:24;16.10;81.00
9901;DHT22;4989;48.772;9.154;2023-05-10T20:12:27;16.30;80.90
9901;DHT22;4989;48.772;9.154;2023-05-10T20:17:29;16.80;79.60
9901;DHT22;4989;48.772;9.154;2023-05-10T20:22:32;16.90;78.90
9901;DHT22;4989;48.772;9.154;2023-05-10T20:27:34;16.40;79.70
9901;DHT22;4989;48.772;9.154;2023-05-10T20:32:36;16.40;80.20
9901;DHT22;4989;48.772;9.154;2023-05-10T20:37:39;16.10;79.90
9901;DHT22;4989;48.772;9.154;2023-05-10T20:42:41;15.60;81.20
9901;DHT22;4989;48.772;9.154;2023-05-10T20:47:43;15.30;83.00
9901;DHT22;4989;48.772;9.154;2023-05-10T20:52:46;15.40;82.10
9901;DHT22;4989;48.772;9.154;2023-05-10T20:57:48;15.20;82.60
9901;DHT22;4989;48.772;9.154;2023-05-10T21:02:50;14.80;83.20
9901;DHT22;4989;48.772;9.154;2023-05-10T21:07:53;14.80;84.10
9901;DHT22;4989;48.772;9.154;2023-05-10T21:12:55;14.70;84.00
9901;DHT22;4989;48.772;9.154;2023-05-10T21:17:58;14.60;85.00
9901;DHT22;4989;48.772;9.154;2023-05-10T21:23:00;14.70;86.10
9901;DHT22;4989;48.772;9.154;2023-05-10T21:28:03;14.50;87.00
9901;DHT22;4989;48.772;9.154;2023-05-10T21:33:05;14.40;87.80
9901;DHT22;4989;48.772;9.154;2023-05-10T21:38:08;14.20;88.50
9901;DHT22;4989;48.772;9.154;2023-05-10T21:43:10;14.20;89.20
9901;DHT22;4989;48.772;9.154;2023-05-10T21:48:12;14.20;88.70
9901;DHT22;4989;48.772;9.154;2023-05-10T21:53:15;14.30;88.80
9901;DHT22;4989;48.772;9.154;2023-05-10T21:58:17;14.30;89.00
9901;DHT22;4989;48.772;9.154;2023-05-10T22:03:19;14.40;88.50
9901;DHT22;4989;48.772;9.154;2023-05-10T22:08:22;14.50;88.60
9901;DHT22;4989;48.772;9.154;2023-05-10T22:13:25;14.40;88.30
9901;DHT22;4989;48.772;9.154;2023-05-10T22:18:27;14.40;90.50
9901;DHT22;4989;48.772;9.154;2023-05-10T22:23:30;14.50;88.30
9901;DHT22;4989;48.772;9.154;2023-05-10T22:28:32;14.50;87.90
9901;DHT22;4989;48.772;9.154;2023-05-10T22:33:34;14.70;87.80
9901;DHT22;4989;48.772;9.154;2023-05-10T22:38:36;14.80;87.30
9901;DHT22;4989;48.772;9.154;2023-05-10T22:43:38;14.70;87.10
9901;DHT22;4989;48.772;9.154;2023-05-10T22:48:41;14.80;87.60
9901;DHT22;4989;48.772;9.154;2023-05-10T22:53:44;14.70;87.70
9901;DHT22;4989;48.772;9.154;2023-05-10T22:58:47;14.70;87.20
9901;DHT22;4989;48.772;9.154;2023-05-10T23:03:50;14.70;87.60
9901;DHT22;4989;48.772;9.154;2023-05-10T23:08:53;14.70;87.10
9901;DHT22;4989;48.772;9.154;2023-05-10T23:13:55;14.70;87.10
9901;DHT22;4989;48.772;9.154;2023-05-10T23:18:58;15.20;86.30
9901;DHT22;4989;48.772;9.154;2023-05-10T23:24:00;15.40;85.00
9901;DHT22;4989;48.772;9.154;2023-05-10T23:29:02;16.00;91.00
9901;DHT22;4989;48.772;9.154;2023-05-10T23:34:05;16.30;88.80
9901;DHT22;4989;48.772;9.154;2023-05-10T23:39:07;16.20;81.80
9901;DHT22;4989;48.772;9.154;2023-05-10T23:44:09;15.70;82.60
9901;DHT22;4989;48.772;9.154;2023-05-10T23:49:11;15.60;84.00
9901;DHT22;4989;48.772;9.154;2023-05-10T23:54:13;16.10;84.40
9901;DHT22;4989;48.772;9.154;2023-05-10T23:59:15;16.40;88.00
